Time;durP1;ratioP1;P1;durP2;ratioP2;P2;SDS_P1;SDS_P2;PMS_P1;PMS_P2;Temp;Humidity;BMP_temperature;BMP_pressure;BME280_temperature;BME280_humidity;BME280_pressure;Samples;Min_cycle;Max_cycle;Signal;HPM_P1;HPM_P2
2024/03/18 00:00:36;;;;;;;52.35;17.42;;;;;;;3.88;58.26;99819.84;5079851;28;20048;-79
2024/03/18 00:03:02;;;;;;;47.30;17.27;;;;;;;3.74;58.17;99774.97;5052071;28;20062;-80
2024/03/18 00:05:29;;;;;;;47.55;16.92;;;;;;;4.31;58.35;99844.63;5070558;28;20036;-79
2024/03/18 00:07:55;;;;;;;52.42;18.23;;;;;;;4.16;57.47;99811.78;5064420;28;20436;-81
2024/03/18 00:10:21;;;;;;;49.95;16.48;;;;;;;4.20;57.76;99810.97;5076700;28;20738;-77
2024/03/18 00:12:50;;;;;;;43.25;16.63;;;;;;;4.44;57.79;99835.41;5080398;28;20091;-77
2024/03/18 00:15:17;;;;;;;41.65;15.57;;;;;;;4.76;57.83;99881.47;5083331;28;20063;-77
2024/03/18 00:17:46;;;;;;;48.97;16.15;;;;;;;4.43;57.88;99818.22;5056652;28;20449;-78
2024/03/18 00:20:13;;;;;;;43.60;15.85;;;;;;;4.14;57.00;99777.41;5073742;28;20036;-79
2024/03/18 00:22:43;;;;;;;37.92;15.85;;;;;;;4.46;57.39;99850.06;5073837;28;20033;-79
2024/03/18 00:25:13;;;;;;;43.28;16.15;;;;;;;4.12;57.81;99797.97;5063216;28;20418;-79
2024/03/18 00:27:39;;;;;;;60.15;17.55;;;;;;;4.71;57.64;99880.53;5074736;28;20036;-79
2024/03/18 00:30:11;;;;;;;50.15;16.02;;;;;;;4.33;58.01;99836.13;5057896;28;20044;-81
2024/03/18 00:32:40;;;;;;;51.63;17.90;;;;;;;4.17;58.10;99814.38;5055737;28;20040;-80
2024/03/18 00:35:13;;;;;;;49.33;16.95;;;;;;;4.62;57.90;99882.13;5056644;28;20072;-78
2024/03/18 00:37:40;;;;;;;43.28;16.10;;;;;;;4.63;57.69;99877.84;5069141;28;20090;-79
2024/03/18 00:40:08;;;;;;;47.90;16.52;;;;;;;4.60;58.21;99872.63;5069145;28;20458;-80
2024/03/18 00:42:35;;;;;;;51.45;17.02;;;;;;;4.19;57.54;99807.53;5081886;28;20093;-79
2024/03/18 00:45:01;;;;;;;48.42;16.25;;;;;;;4.28;57.94;99854.91;5088949;28;20040;-80
2024/03/18 00:47:28;;;;;;;49.08;17.40;;;;;;;4.00;58.56;99826.94;5071716;28;20571;-80
2024/03/18 00:49:54;;;;;;;52.50;16.92;;;;;;;4.48;58.38;99899.06;5064595;28;21616;-81
2024/03/18 00:52:20;;;;;;;52.28;17.85;;;;;;;4.40;58.36;99872.31;5070312;28;20128;-81
2024/03/18 00:54:47;;;;;;;50.35;16.40;;;;;;;4.57;58.53;99888.91;5067236;28;20044;-80
2024/03/18 00:57:13;;;;;;;50.15;17.10;;;;;;;4.34;57.92;99849.84;5070419;28;21257;-80
2024/03/18 00:59:42;;;;;;;48.47;17.50;;;;;;;4.74;58.24;99901.22;5095633;28;20701;-79
2024/03/18 01:02:08;;;;;;;55.63;16.63;;;;;;;4.10;57.94;99798.78;5072318;28;20061;-79
2024/03/18 01:04:34;;;;;;;54.40;17.70;;;;;;;4.45;57.75;99862.91;5054079;28;20100;-81
2024/03/18 01:07:01;;;;;;;54.95;17.90;;;;;;;4.28;57.97;99852.34;5065713;28;20039;-84
2024/03/18 01:09:28;;;;;;;56.55;18.05;;;;;;;4.20;58.39;99842.75;5073959;28;20409;-80
2024/03/18 01:11:55;;;;;;;56.55;18.75;;;;;;;4.25;58.09;99844.56;5073968;28;20051;-82
2024/03/18 01:14:22;;;;;;;56.58;18.63;;;;;;;4.49;58.27;99868.16;5087305;28;20063;-80
2024/03/18 01:16:48;;;;;;;58.30;18.48;;;;;;;4.57;58.53;99895.75;5057623;28;20090;-81
2024/03/18 01:19:15;;;;;;;62.60;20.38;;;;;;;4.69;58.68;99911.44;5085640;28;20482;-80
2024/03/18 01:21:44;;;;;;;71.47;21.52;;;;;;;4.44;58.70;99859.50;5084238;28;20052;-81
2024/03/18 01:24:10;;;;;;;72.78;23.02;;;;;;;4.44;58.68;99867.22;5058835;28;20550;-82
2024/03/18 01:26:37;;;;;;;75.85;25.00;;;;;;;4.52;57.96;99875.06;5052952;28;20040;-83
2024/03/18 01:29:09;;;;;;;82.22;24.88;;;;;;;4.55;58.42;99879.41;5084586;28;20138;-82
2024/03/18 01:31:37;;;;;;;67.53;22.27;;;;;;;4.57;57.47;99913.81;5066943;28;20421;-85
2024/03/18 01:34:04;;;;;;;58.70;20.08;;;;;;;4.14;58.96;99840.06;5055994;28;20048;-83
2024/03/18 01:36:33;;;;;;;53.50;20.30;;;;;;;4.06;57.52;99833.94;5055106;28;20040;-82
2024/03/18 01:39:00;;;;;;;57.40;21.05;;;;;;;4.16;58.86;99876.16;5037588;28;20080;-77
2024/03/18 01:41:27;;;;;;;63.60;20.67;;;;;;;3.96;59.18;99830.31;5049025;28;20059;-81
2024/03/18 01:43:53;;;;;;;79.47;23.33;;;;;;;4.47;58.55;99913.66;5064696;28;20054;-81
2024/03/18 01:46:20;;;;;;;63.65;24.30;;;;;;;4.21;58.68;99871.94;5048703;28;20055;-83
2024/03/18 01:48:47;;;;;;;74.63;24.52;;;;;;;4.03;58.37;99841.59;5065865;28;20081;-81
2024/03/18 01:51:15;;;;;;;69.05;23.35;;;;;;;4.10;58.73;99842.56;5038278;28;20049;-79
2024/03/18 01:53:42;;;;;;;69.72;24.20;;;;;;;4.33;58.74;99885.06;5055664;28;20526;-80
2024/03/18 01:56:09;;;;;;;60.75;22.90;;;;;;;4.34;58.63;99884.22;5053703;28;20041;-81
2024/03/18 01:58:38;;;;;;;62.17;23.02;;;;;;;4.47;58.09;99925.66;5054481;28;20060;-78
2024/03/18 02:01:07;;;;;;;71.20;23.05;;;;;;;4.33;58.90;99922.81;5037558;28;20071;-81
2024/03/18 02:03:35;;;;;;;71.03;24.00;;;;;;;4.06;58.86;99894.00;5059675;28;20039;-79
2024/03/18 02:06:02;;;;;;;57.33;21.55;;;;;;;3.61;58.56;99839.09;5079725;28;20089;-80
2024/03/18 02:08:29;;;;;;;64.30;21.67;;;;;;;3.33;59.21;99790.47;5051160;28;20383;-77
2024/03/18 02:10:59;;;;;;;65.72;22.33;;;;;;;3.96;58.57;99911.84;5037609;28;20044;-82
2024/03/18 02:13:25;;;;;;;61.10;22.90;;;;;;;3.60;59.60;99845.06;5077664;28;20040;-79
2024/03/18 02:15:57;;;;;;;62.53;22.25;;;;;;;4.07;59.64;99882.03;5053462;28;20152;-80
2024/03/18 02:18:26;;;;;;;;;;;;;;;4.42;59.84;99922.13;5050784;28;20114;-80
2024/03/18 02:20:56;;;;;;;47.55;17.48;;;;;;;4.04;59.18;99869.09;5052773;28;20012;-80
2024/03/18 02:23:28;;;;;;;54.10;17.58;;;;;;;4.41;59.21;99939.31;5051382;28;20418;-80
2024/03/18 02:25:59;;;;;;;43.67;17.02;;;;;;;4.15;59.32;99880.44;5046588;28;20090;-83
2024/03/18 02:28:39;;;;;;;46.42;18.00;;;;;;;3.76;59.27;99801.63;5062911;28;20044;-80
2024/03/18 02:31:06;;;;;;;59.83;16.98;;;;;;;4.01;59.02;99830.41;5059822;28;20037;-80
2024/03/18 02:33:32;;;;;;;51.85;16.52;;;;;;;4.23;59.45;99880.56;5062150;28;20043;-82
2024/03/18 02:36:03;;;;;;;57.67;16.63;;;;;;;3.62;58.96;99803.91;5054063;28;20047;-81
2024/03/18 02:38:32;;;;;;;54.28;16.23;;;;;;;3.91;59.30;99853.38;5067655;28;20071;-79
2024/03/18 02:40:58;;;;;;;50.30;16.58;;;;;;;4.43;60.10;99908.41;5067092;28;20044;-78
2024/03/18 02:43:24;;;;;;;45.35;15.30;;;;;;;4.51;59.28;99915.47;5081209;28;20041;-80
2024/03/18 02:45:51;;;;;;;43.33;15.63;;;;;;;4.22;59.14;99850.50;5080230;28;20044;-77
2024/03/18 02:48:24;;;;;;;55.60;17.38;;;;;;;4.67;60.12;99916.56;5070192;28;20036;-82
2024/03/18 02:50:53;;;;;;;51.97;16.90;;;;;;;4.48;59.19;99888.75;5070265;28;20494;-82
2024/03/18 02:53:19;;;;;;;60.75;16.27;;;;;;;4.12;59.11;99828.88;5083558;28;20056;-81
2024/03/18 02:55:45;;;;;;;48.95;16.23;;;;;;;4.35;59.00;99867.03;5068162;28;20040;-80
2024/03/18 02:58:12;;;;;;;47.22;15.60;;;;;;;4.29;59.27;99854.06;5059841;28;20048;-82
2024/03/18 03:00:38;;;;;;;44.78;15.60;;;;;;;4.26;59.33;99843.72;5068817;28;20036;-82
2024/03/18 03:03:04;;;;;;;46.60;15.95;;;;;;;4.06;58.93;99823.63;5082176;28;20107;-80
2024/03/18 03:05:30;;;;;;;53.55;17.33;;;;;;;3.86;58.96;99803.50;5083232;28;20499;-83
2024/03/18 03:08:05;;;;;;;48.45;15.45;;;;;;;4.56;59.45;99927.53;5071648;28;20047;-83
2024/03/18 03:10:32;;;;;;;47.10;15.77;;;;;;;4.21;58.95;99864.22;5080981;28;20039;-80
2024/03/18 03:12:58;;;;;;;50.88;17.20;;;;;;;4.65;59.64;99935.44;5077974;28;20040;-81
2024/03/18 03:15:24;;;;;;;42.60;15.98;;;;;;;4.35;59.70;99890.22;5068067;28;20051;-81
2024/03/18 03:17:50;;;;;;;48.72;15.63;;;;;;;4.68;58.83;99932.91;5076828;28;20044;-81
2024/03/18 03:20:30;;;;;;;55.50;17.58;;;;;;;4.55;58.80;99930.94;5068171;28;20036;-78
2024/03/18 03:22:58;;;;;;;42.00;14.40;;;;;;;4.18;59.45;99895.94;5060270;28;20040;-77
2024/03/18 03:25:26;;;;;;;50.67;15.32;;;;;;;3.93;59.67;99845.72;5047736;28;20529;-76
2024/03/18 03:27:58;;;;;;;46.20;16.38;;;;;;;4.45;59.18;99920.50;5050611;28;20817;-77
2024/03/18 03:30:25;;;;;;;47.28;15.88;;;;;;;4.55;59.04;99915.47;5064438;28;20075;-75
2024/03/18 03:32:51;;;;;;;51.17;15.82;;;;;;;4.62;59.61;99919.91;5078985;28;20491;-80
2024/03/18 03:35:18;;;;;;;46.38;15.27;;;;;;;4.64;59.45;99905.34;5070274;28;20100;-80
2024/03/18 03:37:44;;;;;;;53.58;16.88;;;;;;;4.09;59.49;99844.25;5052882;28;20052;-76
2024/03/18 03:40:11;;;;;;;53.03;16.02;;;;;;;4.40;59.51;99901.50;5051681;28;20059;-78
2024/03/18 03:42:37;;;;;;;58.05;16.17;;;;;;;4.14;58.84;99846.94;5053591;28;20043;-77
2024/03/18 03:45:09;;;;;;;47.85;15.27;;;;;;;4.22;59.11;99871.09;5076563;28;20044;-77
2024/03/18 03:47:35;;;;;;;57.58;17.10;;;;;;;4.66;59.00;99957.81;5067637;28;20130;-79
2024/03/18 03:50:04;;;;;;;70.93;20.58;;;;;;;4.46;58.99;99922.22;5080054;28;20040;-78
2024/03/18 03:52:33;;;;;;;56.13;16.10;;;;;;;4.70;59.47;99951.88;5054677;28;20052;-75
2024/03/18 03:55:00;;;;;;;49.53;16.92;;;;;;;4.66;59.65;99935.44;5066472;28;20126;-78
2024/03/18 03:57:32;;;;;;;53.47;19.80;;;;;;;4.45;59.34;99906.72;5046277;28;20066;-78
2024/03/18 04:00:33;;;;;;;56.95;20.38;;;;;;;4.37;59.56;99896.28;5070912;28;20066;-79
2024/03/18 04:03:01;;;;;;;57.60;21.90;;;;;;;4.27;59.44;99878.94;5060532;28;20131;-75
2024/03/18 04:05:27;;;;;;;56.45;21.98;;;;;;;4.74;59.65;99945.03;5074496;28;20044;-76
2024/03/18 04:07:54;;;;;;;48.50;20.38;;;;;;;4.47;58.97;99908.50;5062776;28;20039;-76
2024/03/18 04:10:20;;;;;;;56.90;20.98;;;;;;;4.52;59.35;99904.28;5061716;28;20070;-78
2024/03/18 04:12:46;;;;;;;55.17;22.35;;;;;;;4.74;58.88;99927.88;5072492;28;20055;-76
2024/03/18 04:15:12;;;;;;;74.28;25.95;;;;;;;4.49;59.00;99899.09;5063834;28;20044;-76
2024/03/18 04:17:38;;;;;;;80.65;26.35;;;;;;;4.72;59.11;99945.03;5075780;28;20541;-77
2024/03/18 04:20:18;;;;;;;76.28;23.98;;;;;;;4.87;59.09;99964.16;5075257;28;20101;-77
2024/03/18 04:22:50;;;;;;;72.00;22.88;;;;;;;5.03;58.69;99989.38;5074764;28;20044;-77
2024/03/18 04:25:17;;;;;;;64.15;23.70;;;;;;;4.64;59.43;99920.81;5059948;28;20071;-78
2024/03/18 04:27:45;;;;;;;54.45;19.77;;;;;;;5.03;58.77;99989.38;5079691;28;20156;-80
2024/03/18 04:30:17;;;;;;;54.88;20.02;;;;;;;4.33;58.91;99899.63;5060741;28;20056;-78
2024/03/18 04:32:44;;;;;;;96.25;38.92;;;;;;;4.64;59.15;99956.91;5064015;28;20027;-78
2024/03/18 04:35:20;;;;;;;65.25;20.70;;;;;;;4.52;58.77;99931.78;5050042;28;20117;-78
2024/03/18 04:37:47;;;;;;;50.15;20.80;;;;;;;5.06;59.03;99994.59;5065891;28;20528;-75
2024/03/18 04:40:19;;;;;;;53.65;19.88;;;;;;;4.77;59.34;99958.84;5050815;28;20042;-82
2024/03/18 04:42:46;;;;;;;54.70;19.55;;;;;;;5.03;59.05;100012.59;5075365;28;20043;-77
2024/03/18 04:45:15;;;;;;;47.22;16.65;;;;;;;4.72;59.39;99926.97;5062532;28;20040;-79
2024/03/18 04:47:52;;;;;;;48.30;16.98;;;;;;;4.91;59.04;99951.34;5063635;28;20043;-80
2024/03/18 04:50:23;;;;;;;46.75;17.38;;;;;;;4.90;59.10;99949.59;5077706;28;20036;-78
2024/03/18 04:52:52;;;;;;;49.58;16.58;;;;;;;4.88;58.62;99965.91;5063113;28;20066;-80
2024/03/18 04:55:19;;;;;;;57.53;19.42;;;;;;;5.08;58.82;100003.22;5078318;28;20033;-80
2024/03/18 04:57:45;;;;;;;53.42;18.42;;;;;;;4.92;58.21;99988.34;5062048;28;20039;-80
2024/03/18 05:00:14;;;;;;;52.63;18.23;;;;;;;5.02;59.03;100002.25;5062061;28;20066;-75
2024/03/18 05:02:44;;;;;;;47.78;17.92;;;;;;;5.01;59.30;99964.41;5079445;28;20045;-74
2024/03/18 05:05:13;;;;;;;57.80;19.02;;;;;;;5.39;58.80;100021.78;5086668;28;20047;-76
2024/03/18 05:07:49;;;;;;;43.85;17.17;;;;;;;4.92;58.31;99962.53;5059101;28;20040;-78
2024/03/18 05:10:21;;;;;;;48.45;16.50;;;;;;;4.64;59.46;99941.44;5081499;28;20044;-78
2024/03/18 05:12:51;;;;;;;45.80;17.17;;;;;;;4.79;59.34;99946.84;5082224;28;20995;-76
2024/03/18 05:15:17;;;;;;;44.58;16.50;;;;;;;4.83;59.05;99920.28;5063779;28;20150;-76
2024/03/18 05:17:43;;;;;;;57.40;20.65;;;;;;;5.21;58.90;99993.09;5077647;28;20140;-75
2024/03/18 05:20:15;;;;;;;55.22;17.80;;;;;;;5.20;58.36;99989.66;5066653;28;20028;-75
2024/03/18 05:22:41;;;;;;;53.58;18.73;;;;;;;4.85;58.87;99950.38;5069898;28;20044;-72
2024/03/18 05:25:12;;;;;;;45.80;18.95;;;;;;;5.17;58.37;100011.97;5079715;28;20656;-76
2024/03/18 05:27:39;;;;;;;55.72;19.30;;;;;;;4.81;58.41;99934.84;5058889;28;20040;-78
2024/03/18 05:30:05;;;;;;;58.95;19.55;;;;;;;5.05;59.31;99954.16;5065725;28;20410;-79
2024/03/18 05:32:32;;;;;;;54.65;18.13;;;;;;;5.64;58.95;100016.13;5079113;28;20514;-74
2024/03/18 05:35:01;;;;;;;52.00;18.17;;;;;;;5.92;59.59;99998.44;5031571;28;20521;-74
2024/03/18 05:37:29;;;;;;;52.72;19.20;;;;;;;6.14;58.77;99984.09;5043475;28;20530;-74
2024/03/18 05:39:56;;;;;;;56.83;19.80;;;;;;;6.19;58.17;99954.00;5064822;28;20032;-75
2024/03/18 05:42:22;;;;;;;56.72;19.00;;;;;;;6.21;58.09;99978.16;5065587;28;20040;-74
2024/03/18 05:44:49;;;;;;;57.13;19.88;;;;;;;6.19;57.11;99951.44;5051614;28;20438;-75
2024/03/18 05:47:18;;;;;;;54.15;19.60;;;;;;;6.02;56.35;99926.28;5051783;28;20036;-72
2024/03/18 05:49:44;;;;;;;58.72;19.40;;;;;;;6.15;56.33;99965.16;5048067;28;20047;-71
2024/03/18 05:52:10;;;;;;;56.17;19.05;;;;;;;6.25;56.36;100018.69;5030877;28;20032;-73
2024/03/18 05:54:36;;;;;;;50.30;20.13;;;;;;;6.33;58.03;100024.81;5028378;28;20036;-73
2024/03/18 05:57:02;;;;;;;52.92;20.95;;;;;;;6.33;57.23;99983.47;5030370;28;20051;-72
2024/03/18 05:59:28;;;;;;;53.10;19.95;;;;;;;6.56;57.24;99966.47;5047638;28;20032;-72
2024/03/18 06:01:54;;;;;;;61.58;26.25;;;;;;;6.82;56.80;99991.72;5030118;28;20417;-73
2024/03/18 06:04:21;;;;;;;63.13;27.38;;;;;;;7.00;56.19;100040.19;5061193;28;20161;-72
2024/03/18 06:06:50;;;;;;;66.85;25.95;;;;;;;7.08;56.36;100041.97;5058568;28;20126;-72
2024/03/18 06:09:17;;;;;;;56.22;24.08;;;;;;;6.93;55.57;100018.56;5047163;28;20113;-76
2024/03/18 06:11:43;;;;;;;53.90;22.30;;;;;;;6.62;55.58;100003.59;5027558;28;20040;-76
2024/03/18 06:14:12;;;;;;;53.05;22.48;;;;;;;6.51;55.76;100007.78;5060214;28;20048;-77
2024/03/18 06:16:41;;;;;;;48.75;21.13;;;;;;;6.64;56.04;100024.28;5044045;28;20044;-76
2024/03/18 06:19:13;;;;;;;57.03;21.27;;;;;;;6.94;55.71;100035.81;5044834;28;20119;-74
2024/03/18 06:21:42;;;;;;;49.85;20.10;;;;;;;6.65;55.11;99995.00;5067499;28;20470;-74
2024/03/18 06:24:19;;;;;;;47.63;19.35;;;;;;;7.04;55.28;100049.72;5047292;28;20563;-78
2024/03/18 06:26:54;;;;;;;50.28;19.02;;;;;;;6.59;55.45;99969.94;5033163;28;20135;-71
2024/03/18 06:29:20;;;;;;;50.80;20.33;;;;;;;6.78;55.25;100007.22;5053629;28;20522;-75
2024/03/18 06:31:46;;;;;;;58.38;21.55;;;;;;;6.24;54.97;99946.31;5045337;28;20040;-75
2024/03/18 06:34:11;;;;;;;64.28;20.95;;;;;;;6.22;55.29;100017.78;5061323;28;20089;-75
2024/03/18 06:36:37;;;;;;;63.58;23.50;;;;;;;6.37;55.46;100027.44;5027902;28;20045;-76
2024/03/18 06:39:04;;;;;;;58.45;21.08;;;;;;;6.17;54.74;99990.19;5073008;28;20058;-75
2024/03/18 06:41:31;;;;;;;64.35;22.02;;;;;;;6.31;55.75;100010.16;5061516;28;20070;-74
2024/03/18 06:43:56;;;;;;;68.10;25.08;;;;;;;6.54;55.28;100018.16;5059815;28;20043;-71
2024/03/18 06:46:23;;;;;;;65.70;21.73;;;;;;;6.71;55.32;100036.44;5076405;28;20107;-71
2024/03/18 06:48:48;;;;;;;72.70;22.98;;;;;;;6.84;55.47;100063.31;5072760;28;20123;-76
2024/03/18 06:51:14;;;;;;;77.75;22.95;;;;;;;6.99;55.12;100066.91;5072420;28;20769;-70
2024/03/18 06:53:41;;;;;;;54.67;18.67;;;;;;;6.34;53.74;99994.69;5060644;28;20036;-71
2024/03/18 06:56:08;;;;;;;63.97;18.63;;;;;;;6.45;54.61;100059.44;5058975;28;20044;-76
2024/03/18 06:58:38;;;;;;;66.38;19.08;;;;;;;6.27;55.70;100026.47;5059205;28;20043;-75
2024/03/18 07:01:05;;;;;;;55.67;21.02;;;;;;;6.42;54.83;100072.31;5057320;28;20567;-74
2024/03/18 07:03:31;;;;;;;64.50;21.60;;;;;;;6.20;55.70;100029.81;5072410;28;20036;-73
2024/03/18 07:05:57;;;;;;;73.35;21.42;;;;;;;6.33;55.46;100060.16;5064559;28;20082;-72
2024/03/18 07:08:23;;;;;;;59.80;20.58;;;;;;;6.18;55.58;100042.72;5074003;28;20055;-71
2024/03/18 07:10:50;;;;;;;66.05;22.98;;;;;;;6.56;56.01;100056.97;5044346;28;20045;-73
2024/03/18 07:13:16;;;;;;;61.97;23.65;;;;;;;6.76;55.37;100065.81;5062408;28;20116;-75
2024/03/18 07:15:42;;;;;;;65.13;23.55;;;;;;;6.77;54.99;100077.03;5042670;28;20604;-72
2024/03/18 07:18:08;;;;;;;62.00;23.40;;;;;;;6.37;55.66;100009.34;5073300;28;20159;-73
2024/03/18 07:20:34;;;;;;;61.08;22.90;;;;;;;6.66;55.39;100030.34;5075380;28;20041;-72
2024/03/18 07:23:02;;;;;;;71.72;22.40;;;;;;;6.80;55.01;100019.31;5071897;28;20039;-76
2024/03/18 07:25:28;;;;;;;63.45;21.80;;;;;;;6.97;55.20;100011.69;5075175;28;20498;-77
2024/03/18 07:27:54;;;;;;;53.60;20.83;;;;;;;7.33;54.27;100075.00;5049840;28;20051;-76
2024/03/18 07:30:20;;;;;;;67.20;20.20;;;;;;;7.04;54.89;100023.81;5058612;28;20078;-75
2024/03/18 07:32:47;;;;;;;67.80;19.40;;;;;;;7.43;54.80;100074.19;5072611;28;20040;-71
2024/03/18 07:35:14;;;;;;;55.65;19.25;;;;;;;7.34;54.55;100043.09;5074498;28;20048;-72
2024/03/18 07:37:42;;;;;;;66.25;19.65;;;;;;;7.54;54.10;100062.22;5058609;28;20044;-71
2024/03/18 07:40:11;;;;;;;61.47;20.15;;;;;;;7.50;53.83;100041.47;5040296;28;20052;-72
2024/03/18 07:42:44;;;;;;;63.92;20.42;;;;;;;7.59;54.15;100038.94;5037923;28;20051;-73
2024/03/18 07:45:10;;;;;;;56.75;18.70;;;;;;;7.86;53.74;100071.09;5037911;28;20410;-73
2024/03/18 07:47:36;;;;;;;51.30;17.27;;;;;;;7.82;53.64;100056.38;5038107;28;20040;-72
2024/03/18 07:50:07;;;;;;;56.30;18.60;;;;;;;7.71;53.52;100030.41;5050326;28;20127;-76
2024/03/18 07:52:33;;;;;;;59.80;18.17;;;;;;;7.75;53.01;100044.22;5049864;28;20072;-73
2024/03/18 07:55:00;;;;;;;56.83;18.52;;;;;;;7.74;53.15;100030.41;5038917;28;20518;-74
2024/03/18 07:57:27;;;;;;;54.03;19.25;;;;;;;7.99;53.08;100064.25;5051583;28;20135;-74
2024/03/18 07:59:54;;;;;;;51.03;18.23;;;;;;;8.13;52.97;100079.88;5054342;28;20098;-74
2024/03/18 08:02:22;;;;;;;57.92;20.73;;;;;;;7.99;52.88;100043.53;5039245;28;20058;-74
2024/03/18 08:04:50;;;;;;;63.65;18.85;;;;;;;7.95;52.85;100024.47;5053960;28;20056;-73
2024/03/18 08:07:17;;;;;;;56.38;20.13;;;;;;;8.04;52.60;100036.66;5049104;28;20060;-77
2024/03/18 08:09:45;;;;;;;60.47;22.70;;;;;;;8.06;52.48;100034.06;5051496;28;20041;-72
2024/03/18 08:12:14;;;;;;;67.65;20.40;;;;;;;7.95;52.17;100014.13;5026306;28;20472;-77
2024/03/18 08:14:42;;;;;;;58.63;21.20;;;;;;;8.06;52.30;100034.91;5039972;28;20068;-71
2024/03/18 08:17:09;;;;;;;54.38;20.25;;;;;;;8.39;52.59;100100.75;5033838;28;20060;-71
2024/03/18 08:19:36;;;;;;;54.13;19.92;;;;;;;8.38;51.87;100092.97;5034590;28;20645;-73
2024/03/18 08:22:02;;;;;;;56.42;18.63;;;;;;;8.05;52.26;100066.88;5042161;28;20546;-70
2024/03/18 08:24:28;;;;;;;59.08;20.40;;;;;;;8.12;52.21;100099.75;5047253;28;20180;-70
2024/03/18 08:26:54;;;;;;;60.58;19.38;;;;;;;7.80;52.34;100021.81;5047881;28;20140;-69
2024/03/18 08:29:21;;;;;;;51.17;19.02;;;;;;;8.29;52.12;100088.59;5017545;28;20131;-71
2024/03/18 08:31:47;;;;;;;51.75;19.08;;;;;;;8.17;52.09;100055.69;5036857;28;20044;-75
2024/03/18 08:34:13;;;;;;;53.80;18.90;;;;;;;8.48;51.26;100099.06;5028015;28;20033;-70
2024/03/18 08:36:39;;;;;;;52.78;18.17;;;;;;;8.03;51.48;100066.00;5050644;28;21107;-68
2024/03/18 08:39:05;;;;;;;69.55;20.23;;;;;;;7.54;51.73;100043.22;5050417;28;20052;-70
2024/03/18 08:41:31;;;;;;;57.22;18.75;;;;;;;7.89;52.62;100104.78;5052437;28;20047;-71
2024/03/18 08:43:57;;;;;;;53.67;18.52;;;;;;;7.86;52.26;100077.97;5053384;28;20056;-68
2024/03/18 08:46:23;;;;;;;62.83;19.38;;;;;;;8.02;52.22;100104.84;5041086;28;20060;-68
2024/03/18 08:48:51;;;;;;;48.22;18.35;;;;;;;7.95;52.20;100093.59;5033501;28;20037;-71
2024/03/18 08:51:20;;;;;;;58.20;18.10;;;;;;;8.16;52.16;100111.03;5060467;28;20041;-69
2024/03/18 08:53:46;;;;;;;65.95;18.63;;;;;;;8.26;52.21;100089.47;5026046;28;20072;-72
2024/03/18 08:56:15;;;;;;;52.10;17.10;;;;;;;8.31;52.00;100073.06;5048810;28;20375;-81
2024/03/18 08:58:42;;;;;;;57.90;17.42;;;;;;;8.31;51.72;100055.75;5051345;28;20033;-88
2024/03/18 09:01:09;;;;;;;48.17;18.60;;;;;;;8.74;51.77;100091.41;5039821;28;20841;-80
2024/03/18 09:03:37;;;;;;;54.00;18.48;;;;;;;8.61;51.52;100077.53;5061964;28;20051;-78
2024/03/18 09:06:05;;;;;;;52.97;18.70;;;;;;;8.59;50.96;100069.75;5043393;28;20052;-81
2024/03/18 09:08:41;;;;;;;55.63;19.55;;;;;;;8.65;50.96;100089.66;5045302;28;20135;-78
2024/03/18 09:11:20;;;;;;;55.88;20.45;;;;;;;8.39;51.10;100087.78;5057047;28;20045;-75
2024/03/18 09:14:01;;;;;;;65.55;20.38;;;;;;;8.60;51.40;100119.91;5054818;28;20036;-75
2024/03/18 09:16:54;;;;;;;49.60;18.25;;;;;;;8.44;51.00;100091.28;5037594;28;20131;-78
2024/03/18 09:19:23;;;;;;;46.78;17.55;;;;;;;7.90;50.01;100082.31;5057165;28;20032;-76
2024/03/18 09:21:52;;;;;;;55.72;19.42;;;;;;;7.66;51.59;100144.34;5052325;28;20063;-73
2024/03/18 09:24:23;;;;;;;49.25;18.13;;;;;;;6.72;51.78;100043.34;5042039;28;20036;-78
2024/03/18 09:26:52;;;;;;;48.67;17.42;;;;;;;6.73;52.71;100016.63;5043651;28;20052;-75
2024/03/18 09:29:22;;;;;;;48.85;17.00;;;;;;;7.66;52.43;100144.34;5029101;28;20102;-76
2024/03/18 09:31:48;;;;;;;48.70;18.08;;;;;;;7.82;52.60;100128.91;5057639;28;20510;-76
2024/03/18 09:34:17;;;;;;;46.90;16.83;;;;;;;7.87;52.59;100122.06;5045691;28;20043;-75
2024/03/18 09:36:43;;;;;;;58.63;17.77;;;;;;;7.54;52.63;100064.81;5058643;28;20047;-76
2024/03/18 09:39:12;;;;;;;42.80;16.13;;;;;;;7.88;52.30;100084.03;5052383;28;20028;-75
2024/03/18 09:41:50;;;;;;;52.58;17.38;;;;;;;8.20;52.35;100122.25;5076396;28;20032;-77
2024/03/18 09:44:17;;;;;;;49.63;17.23;;;;;;;7.86;51.49;100109.94;5032553;28;20563;-77
2024/03/18 09:46:44;;;;;;;50.03;16.98;;;;;;;7.62;52.41;100083.00;5078743;28;20036;-76
2024/03/18 09:49:20;;;;;;;42.47;16.23;;;;;;;7.54;51.70;100077.78;5053154;28;20072;-76
2024/03/18 09:51:47;;;;;;;49.80;16.25;;;;;;;7.79;52.06;100145.31;5034644;28;20036;-76
2024/03/18 09:54:18;;;;;;;42.97;15.88;;;;;;;7.22;52.90;100052.47;5046238;28;20079;-75
2024/03/18 09:57:02;;;;;;;46.42;17.02;;;;;;;7.84;51.95;100143.59;5039457;28;20446;-74
2024/03/18 09:59:28;;;;;;;56.45;16.90;;;;;;;7.88;52.73;100148.81;5033273;28;20092;-73
2024/03/18 10:01:54;;;;;;;47.60;16.90;;;;;;;7.95;52.66;100129.88;5060021;28;20444;-74
2024/03/18 10:04:22;;;;;;;52.13;17.40;;;;;;;8.05;52.57;100107.47;5057604;28;20044;-74
2024/03/18 10:06:56;;;;;;;49.25;17.88;;;;;;;8.04;52.31;100109.22;5043591;28;20062;-76
2024/03/18 10:09:26;;;;;;;46.35;18.25;;;;;;;8.21;52.34;100130.03;5051797;28;20041;-77
2024/03/18 10:11:55;;;;;;;51.33;17.88;;;;;;;7.86;52.01;100077.97;5041159;28;20039;-77
2024/03/18 10:14:24;;;;;;;46.95;17.52;;;;;;;8.29;52.19;100145.63;5041026;28;20039;-78
2024/03/18 10:16:51;;;;;;;53.63;17.63;;;;;;;8.31;51.54;100150.84;5044408;28;20035;-80
2024/03/18 10:19:17;;;;;;;47.50;17.63;;;;;;;8.20;51.93;100124.84;5028016;28;20033;-77
2024/03/18 10:21:50;;;;;;;57.60;18.30;;;;;;;8.22;51.68;100124.00;5045754;28;20040;-78
2024/03/18 10:24:19;;;;;;;54.88;17.48;;;;;;;8.18;51.44;100113.59;5065570;28;20071;-77
2024/03/18 10:26:45;;;;;;;58.72;19.80;;;;;;;8.29;50.92;100135.25;5045603;28;20067;-75
2024/03/18 10:29:14;;;;;;;64.95;19.92;;;;;;;8.43;51.02;100150.91;5051487;28;20043;-76
2024/03/18 10:31:44;;;;;;;52.88;19.13;;;;;;;8.01;51.23;100065.13;5037940;28;20040;-75
2024/03/18 10:34:19;;;;;;;58.47;19.50;;;;;;;8.63;51.25;100145.84;5059280;28;20044;-75
2024/03/18 10:36:50;;;;;;;55.85;18.05;;;;;;;8.52;51.34;100124.19;5056849;28;20070;-77
2024/03/18 10:39:36;;;;;;;43.90;17.05;;;;;;;8.62;50.75;100145.84;5051493;28;20040;-74
2024/03/18 10:42:06;;;;;;;51.17;19.17;;;;;;;8.62;51.11;100156.22;5047287;28;20140;-74
2024/03/18 10:44:39;;;;;;;55.22;18.52;;;;;;;8.64;51.18;100152.78;5067262;28;20043;-76
2024/03/18 10:47:10;;;;;;;52.40;17.83;;;;;;;8.53;51.04;100125.91;5062673;28;20123;-77
2024/03/18 10:49:38;;;;;;;53.00;18.20;;;;;;;8.62;50.47;100144.13;5062168;28;20086;-77
2024/03/18 10:52:04;;;;;;;45.33;16.90;;;;;;;8.70;50.91;100152.81;5042675;28;20040;-76
2024/03/18 10:54:31;;;;;;;62.67;17.42;;;;;;;8.63;50.83;100144.97;5058864;28;20145;-80
2024/03/18 10:56:58;;;;;;;51.40;17.30;;;;;;;8.58;50.76;100147.56;5043182;28;20040;-75
2024/03/18 10:59:24;;;;;;;47.20;17.42;;;;;;;8.46;50.77;100150.94;5060101;28;20039;-75
2024/03/18 11:01:50;;;;;;;55.67;17.23;;;;;;;8.12;50.67;100117.03;5074405;28;20419;-75
2024/03/18 11:04:20;;;;;;;52.95;17.15;;;;;;;8.45;50.74;100167.34;5072760;28;20974;-74
2024/03/18 11:06:51;;;;;;;53.92;17.40;;;;;;;8.19;50.93;100128.31;5043907;28;20051;-77
2024/03/18 11:09:18;;;;;;;57.40;18.65;;;;;;;8.16;50.88;100136.06;5046514;28;20040;-76
2024/03/18 11:11:45;;;;;;;54.58;18.50;;;;;;;8.19;50.87;100151.63;5043654;28;20102;-73
2024/03/18 11:14:14;;;;;;;52.00;18.08;;;;;;;8.30;51.02;100168.09;5075179;28;20037;-74
2024/03/18 11:16:44;;;;;;;56.97;17.85;;;;;;;7.70;50.67;100080.47;5046143;28;20890;-77
2024/03/18 11:19:19;;;;;;;55.40;17.70;;;;;;;8.30;51.29;100183.66;5068534;28;20041;-77
2024/03/18 11:22:04;;;;;;;61.50;18.40;;;;;;;8.33;51.14;100180.25;5050495;28;20036;-76
2024/03/18 11:24:34;;;;;;;61.58;18.98;;;;;;;8.22;50.90;100156.84;5075069;28;20516;-75
2024/03/18 11:27:01;;;;;;;67.13;20.60;;;;;;;8.24;50.79;100161.16;5057795;28;20036;-74